Time;durP1;ratioP1;P1;durP2;ratioP2;P2;SDS_P1;SDS_P2;PMS_P1;PMS_P2;Temp;Humidity;BMP_temperature;BMP_pressure;BME280_temperature;BME280_humidity;BME280_pressure;Samples;Min_cycle;Max_cycle;Signal;HPM_P1;HPM_P2
2021/09/05 00:05:33;;;;;;;1.87;1.60;;;22.60;99.90;;;;;;20612544;28;20235;-65
2021/09/05 00:15:36;;;;;;;1.48;0.75;;;22.50;99.90;;;;;;20595299;28;20196;-65
2021/09/05 00:25:42;;;;;;;1.07;0.77;;;22.30;99.90;;;;;;20622127;28;20229;-64
2021/09/05 00:35:45;;;;;;;2.10;1.90;;;22.20;99.90;;;;;;20619416;28;20642;-64
2021/09/05 00:45:50;;;;;;;0.25;0.22;;;21.90;99.90;;;;;;20626570;28;20592;-65
2021/09/05 00:55:54;;;;;;;1.60;0.83;;;22.00;99.90;;;;;;20607461;28;20199;-64
2021/09/05 01:05:59;;;;;;;2.93;2.73;;;22.10;99.90;;;;;;20661608;28;20235;-64
2021/09/05 01:16:03;;;;;;;0.93;0.77;;;22.10;99.90;;;;;;20706047;28;20596;-65
2021/09/05 01:26:11;;;;;;;0.77;0.77;;;22.00;99.90;;;;;;20688388;28;20244;-66
2021/09/05 01:36:17;;;;;;;0.70;0.70;;;21.80;99.90;;;;;;20663088;28;20209;-65
2021/09/05 01:46:21;;;;;;;3.13;2.07;;;21.70;99.90;;;;;;20625043;28;20234;-67
2021/09/05 01:56:28;;;;;;;1.80;0.93;;;21.70;99.90;;;;;;20608005;28;20211;-65
2021/09/05 02:06:31;;;;;;;1.43;0.73;;;21.90;99.90;;;;;;20637187;23;20786;-67
2021/09/05 02:16:37;;;;;;;1.40;0.63;;;21.80;99.90;;;;;;20624382;28;21042;-65
2021/09/05 02:26:41;;;;;;;0.90;0.90;;;21.70;99.90;;;;;;20635464;28;20238;-67
2021/09/05 02:36:46;;;;;;;0.40;0.40;;;21.60;99.90;;;;;;20653238;28;20195;-68
2021/09/05 02:46:49;;;;;;;0.63;0.63;;;21.50;99.90;;;;;;20692975;28;20222;-67
2021/09/05 02:56:54;;;;;;;1.20;0.97;;;21.40;99.90;;;;;;20701299;28;20274;-67
2021/09/05 03:06:58;;;;;;;1.40;0.67;;;21.40;99.90;;;;;;20642588;23;20242;-70
2021/09/05 03:17:03;;;;;;;1.60;1.47;;;21.50;99.90;;;;;;20600942;28;20215;-69
2021/09/05 03:27:06;;;;;;;0.60;0.50;;;21.40;99.90;;;;;;20617437;28;20231;-72
2021/09/05 03:37:12;;;;;;;1.03;0.83;;;21.40;99.90;;;;;;20668367;28;20265;-70
2021/09/05 03:47:15;;;;;;;0.20;0.20;;;21.40;99.90;;;;;;20698862;28;20429;-69
2021/09/05 03:57:21;;;;;;;1.37;0.80;;;21.40;99.90;;;;;;20696621;28;20187;-70
2021/09/05 04:07:24;;;;;;;0.80;0.63;;;21.40;99.90;;;;;;20698383;28;20227;-70
2021/09/05 04:17:29;;;;;;;0.80;0.70;;;21.50;99.90;;;;;;20696526;28;20652;-70
2021/09/05 04:27:33;;;;;;;0.70;0.70;;;21.30;99.90;;;;;;20695747;28;20426;-70
2021/09/05 04:37:39;;;;;;;0.20;0.10;;;21.30;99.90;;;;;;20638156;28;20199;-70
2021/09/05 04:47:42;;;;;;;10.40;1.03;;;21.30;99.90;;;;;;20613875;28;20230;-70
2021/09/05 04:57:48;;;;;;;6.63;1.93;;;21.10;99.90;;;;;;20603110;28;20196;-70
2021/09/05 05:07:54;;;;;;;1.73;1.53;;;21.00;99.90;;;;;;20597292;28;20235;-69
2021/09/05 05:17:59;;;;;;;0.67;0.67;;;21.10;99.90;;;;;;20609006;28;20250;-69
2021/09/05 05:28:03;;;;;;;2.30;1.60;;;21.00;99.90;;;;;;20627985;28;20775;-71
2021/09/05 05:38:08;;;;;;;2.20;1.33;;;20.80;99.90;;;;;;20684102;28;20209;-70
2021/09/05 05:48:12;;;;;;;1.47;0.80;;;21.00;99.90;;;;;;20688329;28;20233;-70
2021/09/05 05:58:17;;;;;;;1.13;1.03;;;21.00;99.90;;;;;;20703409;28;20198;-68
2021/09/05 06:08:41;;;;;;;7.93;1.37;;;21.20;99.90;;;;;;20704175;28;20241;-71
2021/09/05 06:18:47;;;;;;;1.17;0.73;;;21.30;99.90;;;;;;20694222;28;20286;-71
2021/09/05 06:28:50;;;;;;;5.97;0.68;;;21.90;99.90;;;;;;20702964;28;21095;-71
2021/09/05 06:38:55;;;;;;;0.63;0.63;;;22.50;99.90;;;;;;20636333;28;20653;-72
2021/09/05 06:48:59;;;;;;;0.45;0.45;;;23.10;99.90;;;;;;20620985;28;20340;-73
2021/09/05 06:59:04;;;;;;;6.97;1.80;;;23.70;99.90;;;;;;20618824;28;20286;-70
2021/09/05 07:09:11;;;;;;;0.70;0.70;;;24.00;99.90;;;;;;20602072;28;20242;-71
2021/09/05 07:19:17;;;;;;;0.93;0.93;;;24.30;99.90;;;;;;20616574;28;20199;-69
2021/09/05 07:29:22;;;;;;;0.80;0.57;;;24.60;99.90;;;;;;20617817;28;20233;-71
2021/09/05 07:39:27;;;;;;;1.45;1.25;;;24.70;99.90;;;;;;20679601;28;20879;-72
2021/09/05 07:49:30;;;;;;;1.63;1.52;;;24.90;99.90;;;;;;20696506;28;20201;-71
2021/09/05 07:59:37;;;;;;;2.92;1.70;;;25.20;99.90;;;;;;20697343;28;20255;-68
2021/09/05 08:09:40;;;;;;;1.30;0.80;;;25.50;99.90;;;;;;20693435;28;20641;-70
2021/09/05 08:19:48;;;;;;;0.20;0.00;;;25.50;99.90;;;;;;20676386;28;20194;-69
2021/09/05 08:29:51;;;;;;;4.50;1.13;;;25.70;99.90;;;;;;20693515;28;20202;-70
2021/09/05 08:39:57;;;;;;;1.48;0.98;;;25.90;99.90;;;;;;20620075;28;20218;-71
2021/09/05 08:50:02;;;;;;;0.98;0.85;;;26.20;99.90;;;;;;20610132;28;20199;-71
2021/09/05 09:00:11;;;;;;;1.30;1.15;;;26.60;99.90;;;;;;20626629;28;20632;-71
2021/09/05 09:10:19;;;;;;;1.60;1.42;;;27.00;99.90;;;;;;20612699;28;20310;-70
2021/09/05 09:20:35;;;;;;;4.18;1.73;;;26.90;99.90;;;;;;20625928;28;20708;-69
2021/09/05 09:30:39;;;;;;;1.90;1.20;;;26.70;99.90;;;;;;20620557;28;20243;-70
2021/09/05 09:40:46;;;;;;;1.33;0.85;;;27.10;99.90;;;;;;20703048;28;21049;-70
2021/09/05 09:50:58;;;;;;;2.80;1.52;;;26.80;99.90;;;;;;20688507;28;20286;-69
2021/09/05 10:01:04;;;;;;;0.75;0.50;;;26.60;99.90;;;;;;20684169;28;20233;-68
2021/09/05 10:11:10;;;;;;;3.35;1.27;;;27.10;99.90;;;;;;20705559;28;20214;-71
2021/09/05 10:21:18;;;;;;;1.20;0.52;;;27.20;99.90;;;;;;20698597;28;20226;-71
2021/09/05 10:31:27;;;;;;;0.80;0.77;;;27.40;99.90;;;;;;20695444;28;20200;-72
2021/09/05 10:41:33;;;;;;;0.70;0.65;;;27.40;99.90;;;;;;20620765;28;20227;-74
2021/09/05 10:51:39;;;;;;;1.75;0.38;;;27.60;99.90;;;;;;20618092;28;20552;-73
2021/09/05 11:01:57;;;;;;;0.65;0.55;;;28.50;99.90;;;;;;20618081;28;20242;-71
2021/09/05 11:12:03;;;;;;;0.93;0.57;;;28.40;99.90;;;;;;20612011;28;20289;-72
2021/09/05 11:22:10;;;;;;;1.95;1.30;;;28.90;99.90;;;;;;20616992;28;20227;-73
2021/09/05 11:32:14;;;;;;;2.58;1.38;;;29.20;99.90;;;;;;20626072;28;20213;-70
2021/09/05 11:42:19;;;;;;;3.13;1.58;;;29.30;99.90;;;;;;20694179;28;20637;-71
2021/09/05 11:52:24;;;;;;;1.17;0.93;;;29.50;99.90;;;;;;20697009;28;20203;-71
2021/09/05 12:02:31;;;;;;;3.22;0.82;;;29.80;99.90;;;;;;20695646;28;20227;-69
2021/09/05 12:12:36;;;;;;;0.50;0.38;;;30.40;99.90;;;;;;20660200;28;20561;-72
2021/09/05 12:22:50;;;;;;;1.75;0.32;;;30.80;99.90;;;;;;20684091;28;20449;-71
2021/09/05 12:33:14;;;;;;;0.60;0.47;;;30.80;99.90;;;;;;20693395;28;20526;-72
2021/09/05 12:43:38;;;;;;;1.38;1.02;;;31.30;99.90;;;;;;20614273;28;20219;-71
2021/09/05 12:53:53;;;;;;;2.38;0.85;;;31.20;99.90;;;;;;20630579;28;21026;-71
2021/09/05 13:04:02;;;;;;;1.27;0.90;;;31.50;99.90;;;;;;20626336;28;20333;-74
2021/09/05 13:14:08;;;;;;;0.70;0.32;;;31.00;99.90;;;;;;20644213;28;20605;-70
2021/09/05 13:24:14;;;;;;;2.88;1.02;;;31.50;99.90;;;;;;20673038;28;20360;-69
2021/09/05 13:34:20;;;;;;;1.35;1.10;;;32.00;99.90;;;;;;20643760;28;20195;-71
2021/09/05 13:44:25;;;;;;;1.15;0.80;;;31.80;99.90;;;;;;20626266;28;20218;-68
2021/09/05 13:54:29;;;;;;;0.50;0.50;;;31.60;99.90;;;;;;20703932;28;20438;-68
2021/09/05 14:04:36;;;;;;;0.90;0.85;;;32.60;99.90;;;;;;20701501;28;20243;-69
2021/09/05 14:14:40;;;;;;;0.38;0.38;;;33.30;99.90;;;;;;20685175;28;20199;-70
2021/09/05 14:24:45;;;;;;;2.72;1.77;;;33.60;99.90;;;;;;20629920;28;20719;-71
2021/09/05 14:34:57;;;;;;;0.63;0.50;;;33.30;99.90;;;;;;20622575;28;20204;-71
2021/09/05 14:55:23;;;;;;;2.20;1.08;;;29.50;99.90;;;;;;20619760;28;20206;-68
2021/09/05 15:05:43;;;;;;;1.77;1.25;;;28.80;99.90;;;;;;20615848;28;20242;-70
2021/09/05 15:15:46;;;;;;;3.42;1.92;;;29.20;99.90;;;;;;20598918;28;20192;-69
2021/09/05 15:25:52;;;;;;;0.80;0.60;;;30.60;99.90;;;;;;20679624;28;20231;-70
2021/09/05 15:56:53;;;;;;;4.03;1.08;;;29.00;99.90;;;;;;20680055;28;20554;-69
2021/09/05 16:17:33;;;;;;;1.20;0.88;;;29.00;99.90;;;;;;20692926;28;20191;-70
2021/09/05 16:27:39;;;;;;;0.60;0.60;;;29.00;99.90;;;;;;20613586;28;20227;-69
2021/09/05 16:38:03;;;;;;;1.67;1.00;;;28.40;99.90;;;;;;20593726;28;20550;-68
2021/09/05 16:48:09;;;;;;;0.65;0.63;;;27.80;99.90;;;;;;20608526;28;20843;-68
2021/09/05 16:58:15;;;;;;;1.85;0.88;;;27.60;99.90;;;;;;20610984;28;20282;-69
2021/09/05 17:08:21;;;;;;;0.80;0.63;;;27.30;99.90;;;;;;20617460;28;20231;-70
2021/09/05 17:18:25;;;;;;;1.25;1.13;;;27.30;99.90;;;;;;20630786;28;20201;-69
2021/09/05 17:28:30;;;;;;;2.78;0.90;;;27.30;99.90;;;;;;20707163;28;20229;-69
2021/09/05 17:38:33;;;;;;;1.85;1.48;;;28.00;99.90;;;;;;20706294;28;20535;-71
2021/09/05 17:48:38;;;;;;;1.80;1.52;;;27.00;99.90;;;;;;20684767;28;20566;-70
2021/09/05 17:58:42;;;;;;;2.10;0.70;;;26.80;99.90;;;;;;20548117;28;20196;-70
2021/09/05 18:08:47;;;;;;;1.48;1.13;;;26.60;99.90;;;;;;20541458;28;20263;-67
2021/09/05 18:18:51;;;;;;;5.95;4.70;;;26.30;99.90;;;;;;20533795;28;20213;-70
2021/09/05 18:28:56;;;;;;;2.85;1.17;;;26.30;99.90;;;;;;20700083;28;20233;-68
2021/09/05 18:38:59;;;;;;;1.65;1.55;;;26.30;99.90;;;;;;20696203;28;20284;-67
2021/09/05 18:49:11;;;;;;;1.35;0.63;;;26.20;99.90;;;;;;20620710;28;20250;-68
2021/09/05 18:59:15;;;;;;;0.60;0.43;;;26.10;99.90;;;;;;20552119;28;20203;-69
2021/09/05 19:09:20;;;;;;;0.60;0.40;;;26.00;99.90;;;;;;20555908;28;20636;-67
2021/09/05 19:19:23;;;;;;;1.13;0.60;;;25.80;99.90;;;;;;20590089;28;20206;-68
2021/09/05 19:29:29;;;;;;;0.63;0.50;;;25.90;99.90;;;;;;20695159;28;20364;-69
2021/09/05 19:39:33;;;;;;;0.63;0.43;;;25.80;99.90;;;;;;20694160;28;20523;-69
2021/09/05 19:49:38;;;;;;;0.65;0.65;;;25.70;99.90;;;;;;20695476;28;20954;-68
2021/09/05 19:59:47;;;;;;;1.20;0.75;;;25.60;99.90;;;;;;20676187;28;20233;-68
2021/09/05 20:09:55;;;;;;;1.00;0.85;;;25.70;99.90;;;;;;20692441;28;20222;-69
2021/09/05 20:19:59;;;;;;;1.25;1.15;;;25.60;99.90;;;;;;20678132;28;20195;-70
2021/09/05 20:30:07;;;;;;;0.95;0.70;;;25.60;99.90;;;;;;20614143;28;20222;-69
2021/09/05 20:40:14;;;;;;;0.73;0.70;;;25.50;99.90;;;;;;20617421;28;20199;-68
2021/09/05 20:50:20;;;;;;;2.30;1.45;;;25.60;99.90;;;;;;20612964;28;20394;-70
2021/09/05 21:00:24;;;;;;;0.90;0.73;;;25.40;99.90;;;;;;20576959;28;20248;-70
2021/09/05 21:10:36;;;;;;;0.85;0.35;;;25.40;99.90;;;;;;20551267;28;20407;-69
2021/09/05 21:20:43;;;;;;;0.70;0.63;;;25.40;99.90;;;;;;20586972;28;20544;-69
2021/09/05 21:30:50;;;;;;;0.60;0.60;;;25.50;99.90;;;;;;20682553;28;20277;-68
2021/09/05 21:40:55;;;;;;;0.73;0.52;;;25.50;99.90;;;;;;20600761;28;20210;-70
2021/09/05 21:51:00;;;;;;;0.80;0.63;;;25.20;99.90;;;;;;20593750;28;20227;-72
2021/09/05 22:01:06;;;;;;;1.33;0.70;;;24.90;99.90;;;;;;20617764;28;20228;-69
2021/09/05 22:11:15;;;;;;;3.10;2.22;;;24.70;99.90;;;;;;20603809;28;20231;-69
2021/09/05 22:21:19;;;;;;;2.55;1.73;;;24.50;99.90;;;;;;20591869;28;20192;-70
2021/09/05 22:31:24;;;;;;;6.47;5.20;;;24.30;99.90;;;;;;20536871;28;20227;-71
2021/09/05 22:41:28;;;;;;;2.22;2.03;;;24.20;99.90;;;;;;20522594;28;20201;-73
2021/09/05 22:51:33;;;;;;;1.17;1.08;;;24.10;99.90;;;;;;20524303;28;20231;-69
2021/09/05 23:01:37;;;;;;;2.55;1.55;;;23.90;99.90;;;;;;20520881;28;20235;-72
2021/09/05 23:11:43;;;;;;;0.77;0.65;;;23.80;99.90;;;;;;20524771;28;20219;-71
2021/09/05 23:21:46;;;;;;;0.70;0.68;;;23.60;99.90;;;;;;20566400;28;20196;-72
2021/09/05 23:31:51;;;;;;;1.15;1.05;;;23.50;99.90;;;;;;20609411;28;20242;-72
2021/09/05 23:41:55;;;;;;;0.45;0.40;;;23.30;99.90;;;;;;20536806;28;20204;-70
2021/09/05 23:52:00;;;;;;;0.77;0.45;;;23.20;99.90;;;;;;20538679;28;20230;-71
